createdAt,value
2018-08-17T00:01:50.944Z,17.57
2018-08-17T00:04:55.209Z,17.57
2018-08-17T00:07:59.433Z,17.53
2018-08-17T00:11:04.509Z,17.46
2018-08-17T00:14:09.279Z,17.41
2018-08-17T00:17:13.566Z,17.36
2018-08-17T00:20:17.839Z,17.34
2018-08-17T00:23:22.121Z,17.29
2018-08-17T00:26:26.385Z,17.21
2018-08-17T00:29:30.632Z,17.14
2018-08-17T00:32:35.112Z,17.09
2018-08-17T00:35:39.320Z,17.05
2018-08-17T00:38:43.541Z,17.04
2018-08-17T00:41:47.846Z,17.06
2018-08-17T00:44:52.097Z,17.06
2018-08-17T00:47:56.334Z,17.05
2018-08-17T00:51:00.601Z,17.00
2018-08-17T00:54:04.849Z,17.01
2018-08-17T00:57:09.092Z,17.01
2018-08-17T01:00:13.393Z,17.02
2018-08-17T01:03:17.608Z,17.04
2018-08-17T01:06:21.847Z,17.01
2018-08-17T01:09:26.089Z,17.00
2018-08-17T01:12:30.324Z,16.96
2018-08-17T01:15:34.549Z,16.93
2018-08-17T01:18:38.833Z,16.90
2018-08-17T01:21:43.064Z,16.88
2018-08-17T01:24:47.309Z,16.87
2018-08-17T01:27:51.532Z,16.85
2018-08-17T01:30:55.773Z,16.82
2018-08-17T01:34:00.034Z,16.77
2018-08-17T01:37:04.292Z,16.73
2018-08-17T01:40:08.556Z,16.67
2018-08-17T01:43:12.793Z,16.64
2018-08-17T01:46:17.024Z,16.62
2018-08-17T01:49:21.296Z,16.56
2018-08-17T01:52:25.565Z,16.54
2018-08-17T01:55:29.780Z,16.54
2018-08-17T01:58:34.002Z,16.52
2018-08-17T02:01:38.226Z,16.52
2018-08-17T02:04:42.469Z,16.50
2018-08-17T02:07:46.704Z,16.50
2018-08-17T02:10:50.952Z,16.49
2018-08-17T02:13:55.208Z,16.48
2018-08-17T02:16:59.429Z,16.46
2018-08-17T02:20:03.715Z,16.45
2018-08-17T02:23:08.127Z,16.44
2018-08-17T02:26:12.368Z,16.42
2018-08-17T02:29:16.628Z,16.40
2018-08-17T02:32:20.937Z,16.38
2018-08-17T02:35:25.182Z,16.35
2018-08-17T02:38:29.468Z,16.33
2018-08-17T02:41:33.692Z,16.33
2018-08-17T02:44:37.945Z,16.31
2018-08-17T02:47:42.157Z,16.28
2018-08-17T02:50:46.403Z,16.25
2018-08-17T02:53:50.652Z,16.23
2018-08-17T02:56:54.905Z,16.24
2018-08-17T02:59:59.185Z,16.24
2018-08-17T03:03:03.400Z,16.23
2018-08-17T03:06:08.724Z,16.20
2018-08-17T03:09:13.011Z,16.18
2018-08-17T03:12:17.258Z,16.17
2018-08-17T03:15:21.527Z,16.15
2018-08-17T03:18:25.779Z,16.13
2018-08-17T03:21:30.047Z,16.12
2018-08-17T03:24:34.367Z,16.08
2018-08-17T03:27:38.656Z,16.08
2018-08-17T03:30:42.884Z,16.08
2018-08-17T03:33:47.120Z,16.08
2018-08-17T03:36:52.537Z,16.08
2018-08-17T03:39:57.061Z,16.04
2018-08-17T03:43:01.330Z,16.00
2018-08-17T03:46:05.549Z,15.95
2018-08-17T03:49:09.819Z,15.93
2018-08-17T03:52:14.087Z,15.89
2018-08-17T03:55:18.339Z,15.87
2018-08-17T03:58:22.596Z,15.82
2018-08-17T04:01:30.430Z,15.79
2018-08-17T04:04:40.229Z,15.80
2018-08-17T04:07:49.315Z,15.84
2018-08-17T04:10:55.817Z,15.87
2018-08-17T04:14:09.492Z,15.90
2018-08-17T04:17:15.755Z,15.92
2018-08-17T04:20:23.656Z,15.96
2018-08-17T04:23:32.441Z,16.00
2018-08-17T04:26:42.981Z,15.97
2018-08-17T04:29:47.285Z,15.96
2018-08-17T04:32:51.534Z,15.99
2018-08-17T04:35:55.772Z,16.04
2018-08-17T04:39:00.038Z,16.05
2018-08-17T04:42:04.288Z,16.08
2018-08-17T04:45:09.308Z,16.05
2018-08-17T04:48:13.570Z,16.05
2018-08-17T04:51:17.839Z,16.05
2018-08-17T04:54:22.098Z,16.11
2018-08-17T04:57:26.365Z,16.11
2018-08-17T05:00:30.604Z,16.09
2018-08-17T05:03:34.893Z,16.13
2018-08-17T05:06:39.143Z,16.18
2018-08-17T05:09:43.396Z,16.27
2018-08-17T05:12:47.640Z,16.37
2018-08-17T05:15:51.880Z,16.46
2018-08-17T05:18:56.146Z,16.54
2018-08-17T05:22:00.484Z,16.62
2018-08-17T05:25:06.833Z,16.68
2018-08-17T05:28:13.897Z,16.72
2018-08-17T05:34:34.009Z,16.83
2018-08-17T05:37:45.726Z,16.90
2018-08-17T05:41:00.098Z,17.00
2018-08-17T05:44:08.360Z,17.07
2018-08-17T05:47:15.333Z,17.09
2018-08-17T05:50:21.593Z,17.13
2018-08-17T05:53:35.754Z,17.23
2018-08-17T05:56:43.403Z,17.29
2018-08-17T06:00:05.018Z,17.37
2018-08-17T06:03:15.098Z,17.45
2018-08-17T06:06:19.521Z,17.54
2018-08-17T06:09:32.146Z,17.59
2018-08-17T06:12:39.497Z,17.69
2018-08-17T06:15:45.558Z,17.79
2018-08-17T06:18:52.198Z,17.82
2018-08-17T06:21:58.314Z,17.81
2018-08-17T06:25:04.877Z,17.80
2018-08-17T06:28:14.163Z,17.81
2018-08-17T06:31:21.908Z,17.84
2018-08-17T06:37:45.493Z,17.92
2018-08-17T06:40:52.449Z,17.90
2018-08-17T06:44:11.797Z,17.88
2018-08-17T06:47:19.670Z,17.87
2018-08-17T06:50:25.293Z,17.91
2018-08-17T06:53:30.547Z,17.95
2018-08-17T06:56:34.794Z,18.00
2018-08-17T06:59:39.094Z,18.01
2018-08-17T07:02:44.579Z,18.02
2018-08-17T07:05:48.727Z,18.03
2018-08-17T07:08:52.995Z,18.04
2018-08-17T07:11:58.065Z,17.99
2018-08-17T07:15:02.362Z,17.95
2018-08-17T07:18:06.725Z,17.98
2018-08-17T07:21:11.019Z,18.03
2018-08-17T07:24:17.471Z,18.07
2018-08-17T07:27:22.638Z,18.03
2018-08-17T07:30:27.813Z,18.02
2018-08-17T07:33:32.814Z,17.96
2018-08-17T07:36:37.808Z,18.03
2018-08-17T07:39:42.662Z,18.07
2018-08-17T07:42:47.682Z,18.14
2018-08-17T07:45:52.343Z,18.20
2018-08-17T07:48:57.136Z,18.27
2018-08-17T07:52:01.994Z,18.35
2018-08-17T07:55:06.250Z,18.49
2018-08-17T07:58:10.525Z,18.58
2018-08-17T08:01:14.809Z,18.60
2018-08-17T08:04:19.066Z,18.64
2018-08-17T08:07:23.342Z,18.59
2018-08-17T08:10:27.660Z,18.61
2018-08-17T08:13:31.956Z,18.64
2018-08-17T08:16:36.357Z,18.71
2018-08-17T08:19:40.638Z,18.76
2018-08-17T08:22:44.924Z,18.86
2018-08-17T08:25:49.184Z,18.93
2018-08-17T08:28:53.449Z,18.94
2018-08-17T08:31:57.716Z,18.98
2018-08-17T08:35:02.082Z,18.97
2018-08-17T08:38:06.473Z,18.96
2018-08-17T08:41:10.702Z,19.00
2018-08-17T08:44:15.064Z,18.97
2018-08-17T08:47:19.293Z,18.96
2018-08-17T08:50:23.636Z,18.97
2018-08-17T08:53:28.272Z,18.99
2018-08-17T08:56:32.660Z,19.05
2018-08-17T08:59:36.939Z,19.10
2018-08-17T09:02:41.267Z,19.14
2018-08-17T09:05:45.561Z,19.21
2018-08-17T09:08:49.840Z,19.33
2018-08-17T09:11:54.158Z,19.43
2018-08-17T09:14:58.459Z,19.44
2018-08-17T09:18:03.024Z,19.46
2018-08-17T09:21:07.606Z,19.45
2018-08-17T09:24:11.959Z,19.51
2018-08-17T09:27:16.329Z,19.55
2018-08-17T09:30:20.649Z,19.63
2018-08-17T09:33:24.963Z,19.69
2018-08-17T09:36:29.281Z,19.70
2018-08-17T09:39:33.611Z,19.72
2018-08-17T09:42:38.010Z,19.73
2018-08-17T09:45:42.434Z,19.74
2018-08-17T09:48:46.730Z,19.79
2018-08-17T09:51:51.010Z,19.87
2018-08-17T09:54:55.318Z,19.91
2018-08-17T09:57:59.750Z,20.02
2018-08-17T10:01:09.375Z,20.12
2018-08-17T10:04:21.618Z,20.26
2018-08-17T10:07:31.315Z,20.33
2018-08-17T10:10:35.659Z,20.34
2018-08-17T10:13:40.393Z,20.34
2018-08-17T10:16:46.041Z,20.35
2018-08-17T10:19:50.422Z,20.44
2018-08-17T10:22:54.887Z,20.56
2018-08-17T10:25:59.414Z,20.65
2018-08-17T10:29:03.688Z,20.79
2018-08-17T10:32:08.933Z,20.83
2018-08-17T10:35:21.125Z,20.92
2018-08-17T10:38:26.545Z,20.95
2018-08-17T10:41:30.805Z,21.07
2018-08-17T10:44:37.081Z,21.20
2018-08-17T10:47:41.614Z,21.23
2018-08-17T10:50:48.786Z,21.33
2018-08-17T10:53:53.505Z,21.44
2018-08-17T10:56:58.314Z,21.44
2018-08-17T11:00:02.780Z,21.54
2018-08-17T11:03:07.094Z,21.65
2018-08-17T11:06:11.414Z,21.60
2018-08-17T11:09:15.814Z,21.50
2018-08-17T11:12:20.077Z,21.53
2018-08-17T11:15:24.774Z,21.50
2018-08-17T11:18:29.029Z,21.51
2018-08-17T11:21:33.284Z,21.51
2018-08-17T11:24:38.144Z,21.52
2018-08-17T11:27:42.386Z,21.49
2018-08-17T11:30:46.654Z,21.47
2018-08-17T11:33:50.909Z,21.42
2018-08-17T11:36:55.181Z,21.39
2018-08-17T11:40:03.075Z,21.47
2018-08-17T11:43:07.369Z,21.51
2018-08-17T11:46:11.637Z,21.62
2018-08-17T11:49:15.883Z,21.77
2018-08-17T11:52:20.153Z,21.81
2018-08-17T11:55:25.738Z,21.85
2018-08-17T11:58:29.969Z,21.81
2018-08-17T12:01:35.362Z,21.86
2018-08-17T12:04:39.673Z,21.86
2018-08-17T12:07:44.712Z,21.79
2018-08-17T12:10:54.405Z,21.72
2018-08-17T12:13:58.695Z,21.69
2018-08-17T12:17:02.952Z,21.65
2018-08-17T12:20:07.304Z,21.63
2018-08-17T12:23:11.614Z,21.58
2018-08-17T12:26:15.869Z,21.70
2018-08-17T12:29:20.142Z,21.72
2018-08-17T12:32:24.789Z,21.74
2018-08-17T12:35:29.054Z,21.71
2018-08-17T12:38:33.336Z,21.68
2018-08-17T12:41:37.609Z,21.72
2018-08-17T12:44:41.906Z,21.74
2018-08-17T12:47:46.162Z,21.84
2018-08-17T12:50:50.470Z,21.83
2018-08-17T12:53:54.745Z,21.84
2018-08-17T12:56:59.596Z,21.97
2018-08-17T13:00:03.934Z,22.08
2018-08-17T13:03:08.421Z,22.16
2018-08-17T13:06:12.696Z,22.23
2018-08-17T13:09:16.964Z,22.20
2018-08-17T13:12:21.742Z,22.08
2018-08-17T13:15:26.537Z,22.09
2018-08-17T13:18:33.161Z,22.12
2018-08-17T13:21:38.600Z,22.17
2018-08-17T13:24:43.508Z,22.13
2018-08-17T13:27:48.673Z,22.07
2018-08-17T13:30:54.102Z,22.05
2018-08-17T13:33:58.890Z,22.12
2018-08-17T13:37:03.627Z,22.44
2018-08-17T13:40:09.882Z,22.67
2018-08-17T13:43:14.938Z,22.77
2018-08-17T13:46:24.149Z,22.73
2018-08-17T13:49:28.597Z,22.77
2018-08-17T13:52:33.442Z,22.77
2018-08-17T13:55:38.246Z,22.74
2018-08-17T13:58:43.080Z,22.72
2018-08-17T14:01:47.986Z,22.68
2018-08-17T14:04:52.836Z,22.65
2018-08-17T14:07:58.838Z,22.66
2018-08-17T14:11:03.849Z,22.73
2018-08-17T14:14:08.894Z,22.68
2018-08-17T14:17:14.155Z,22.42
2018-08-17T14:20:19.312Z,22.45
2018-08-17T14:23:23.804Z,22.52
2018-08-17T14:26:28.485Z,22.58
2018-08-17T14:29:34.271Z,22.42
2018-08-17T14:32:39.053Z,22.17
2018-08-17T14:35:44.654Z,21.95
2018-08-17T14:38:49.494Z,21.82
2018-08-17T14:41:57.772Z,21.70
2018-08-17T14:45:02.874Z,21.69
2018-08-17T14:48:08.297Z,21.66
2018-08-17T14:51:13.885Z,21.57
2018-08-17T14:54:19.838Z,21.45
2018-08-17T14:57:24.883Z,21.47
2018-08-17T15:00:29.796Z,21.45
2018-08-17T15:03:34.726Z,21.49
2018-08-17T15:06:39.629Z,21.47
2018-08-17T15:09:44.273Z,21.35
2018-08-17T15:12:49.616Z,21.33
2018-08-17T15:15:54.269Z,21.55
2018-08-17T15:18:59.048Z,21.77
2018-08-17T15:22:05.290Z,21.94
2018-08-17T15:25:10.047Z,22.06
2018-08-17T15:28:15.081Z,22.00
2018-08-17T15:31:20.822Z,21.88
2018-08-17T15:34:26.521Z,21.79
2018-08-17T15:37:30.933Z,21.94
2018-08-17T15:40:35.833Z,22.21
2018-08-17T15:43:40.699Z,22.47
2018-08-17T15:46:45.852Z,22.33
2018-08-17T15:50:07.564Z,21.96
2018-08-17T15:53:12.651Z,21.74
2018-08-17T15:56:17.703Z,21.64
2018-08-17T15:59:23.034Z,21.82
2018-08-17T16:02:28.010Z,22.07
2018-08-17T16:05:33.147Z,22.11
2018-08-17T16:08:38.582Z,21.98
2018-08-17T16:11:44.410Z,21.81
2018-08-17T16:14:49.409Z,21.51
2018-08-17T16:17:55.105Z,21.32
2018-08-17T16:21:00.490Z,21.20
2018-08-17T16:24:07.017Z,21.14
2018-08-17T16:27:12.478Z,21.19
2018-08-17T16:30:17.523Z,21.21
2018-08-17T16:33:23.598Z,21.19
2018-08-17T16:36:29.201Z,21.19
2018-08-17T16:39:39.998Z,21.22
2018-08-17T16:42:44.458Z,21.25
2018-08-17T16:45:48.773Z,21.11
2018-08-17T16:48:53.216Z,21.05
2018-08-17T16:51:57.492Z,21.02
2018-08-17T16:55:02.113Z,21.03
2018-08-17T16:58:06.623Z,20.93
2018-08-17T17:01:11.038Z,20.85
2018-08-17T17:04:15.555Z,20.74
2018-08-17T17:07:19.944Z,20.67
2018-08-17T17:10:32.806Z,20.63
2018-08-17T17:13:41.437Z,20.55
2018-08-17T17:16:47.949Z,20.46
2018-08-17T17:19:52.661Z,20.39
2018-08-17T17:22:56.981Z,20.33
2018-08-17T17:26:01.297Z,20.29
2018-08-17T17:29:05.666Z,20.23
2018-08-17T17:32:10.035Z,20.14
2018-08-17T17:35:14.347Z,20.08
2018-08-17T17:38:18.623Z,20.03
2018-08-17T17:41:22.969Z,20.01
2018-08-17T17:44:27.273Z,19.95
2018-08-17T17:47:31.633Z,19.90
2018-08-17T17:50:35.945Z,19.84
2018-08-17T17:53:46.157Z,19.77
2018-08-17T17:56:58.984Z,19.66
2018-08-17T18:00:03.205Z,19.57
2018-08-17T18:03:07.948Z,19.56
2018-08-17T18:06:12.257Z,19.50
2018-08-17T18:09:16.563Z,19.42
2018-08-17T18:12:20.836Z,19.38
2018-08-17T18:15:25.073Z,19.29
2018-08-17T18:18:29.364Z,19.19
2018-08-17T18:21:34.211Z,19.15
2018-08-17T18:24:38.450Z,19.07
2018-08-17T18:27:42.738Z,18.99
2018-08-17T18:30:47.044Z,18.93
2018-08-17T18:33:51.254Z,18.87
2018-08-17T18:36:55.537Z,18.81
2018-08-17T18:39:59.791Z,18.72
2018-08-17T18:43:04.037Z,18.67
2018-08-17T18:46:08.466Z,18.61
2018-08-17T18:49:12.702Z,18.56
2018-08-17T18:52:16.956Z,18.47
2018-08-17T18:55:21.198Z,18.41
2018-08-17T18:58:25.437Z,18.33
2018-08-17T19:01:29.723Z,18.27
2018-08-17T19:04:33.954Z,18.23
2018-08-17T19:07:38.806Z,18.17
2018-08-17T19:10:43.040Z,18.14
2018-08-17T19:13:47.292Z,18.08
2018-08-17T19:16:51.589Z,18.00
2018-08-17T19:19:55.788Z,17.97
2018-08-17T19:23:00.022Z,17.93
2018-08-17T19:26:04.296Z,17.88
2018-08-17T19:29:08.516Z,17.84
2018-08-17T19:32:12.795Z,17.79
2018-08-17T19:35:17.516Z,17.76
2018-08-17T19:38:21.747Z,17.75
2018-08-17T19:41:26.020Z,17.70
2018-08-17T19:44:30.640Z,17.66
2018-08-17T19:47:34.894Z,17.62
2018-08-17T19:50:39.141Z,17.57
2018-08-17T19:53:43.388Z,17.51
2018-08-17T19:56:47.631Z,17.44
2018-08-17T19:59:51.910Z,17.34
2018-08-17T20:02:56.185Z,17.25
2018-08-17T20:06:00.408Z,17.17
2018-08-17T20:09:06.353Z,17.09
2018-08-17T20:12:10.640Z,17.01
2018-08-17T20:15:14.899Z,16.95
2018-08-17T20:18:19.336Z,16.88
2018-08-17T20:21:24.964Z,16.79
2018-08-17T20:24:29.181Z,16.71
2018-08-17T20:27:33.422Z,16.60
2018-08-17T20:30:37.628Z,16.54
2018-08-17T20:33:41.974Z,16.48
2018-08-17T20:36:46.239Z,16.42
2018-08-17T20:39:50.462Z,16.40
2018-08-17T20:42:54.741Z,16.39
2018-08-17T20:45:59.006Z,16.29
2018-08-17T20:49:03.268Z,16.26
2018-08-17T20:52:07.518Z,16.17
2018-08-17T20:55:11.758Z,16.06
2018-08-17T20:58:16.109Z,15.99
2018-08-17T21:01:20.669Z,15.93
2018-08-17T21:04:25.291Z,15.91
2018-08-17T21:07:29.982Z,15.88
2018-08-17T21:10:34.511Z,15.84
2018-08-17T21:13:39.098Z,15.81
2018-08-17T21:16:43.648Z,15.79
2018-08-17T21:19:48.227Z,15.76
2018-08-17T21:22:52.789Z,15.72
2018-08-17T21:25:57.185Z,15.69
2018-08-17T21:29:02.856Z,15.66
2018-08-17T21:32:07.122Z,15.62
2018-08-17T21:35:11.438Z,15.57
2018-08-17T21:38:15.764Z,15.53
2018-08-17T21:41:20.164Z,15.47
2018-08-17T21:44:24.464Z,15.43
2018-08-17T21:47:28.804Z,15.38
2018-08-17T21:50:33.114Z,15.32
2018-08-17T21:53:37.419Z,15.27
2018-08-17T21:56:41.760Z,15.22
2018-08-17T21:59:51.969Z,15.18
2018-08-17T22:02:56.285Z,15.14
2018-08-17T22:06:00.606Z,15.09
2018-08-17T22:09:07.065Z,15.05
2018-08-17T22:12:12.187Z,14.98
2018-08-17T22:15:16.473Z,14.90
2018-08-17T22:18:20.824Z,14.86
2018-08-17T22:21:26.797Z,14.84
2018-08-17T22:24:31.852Z,14.82
2018-08-17T22:27:36.151Z,14.82
2018-08-17T22:30:40.451Z,14.81
2018-08-17T22:33:44.749Z,14.81
2018-08-17T22:36:49.066Z,14.80
2018-08-17T22:39:53.341Z,14.80
2018-08-17T22:42:57.573Z,14.78
2018-08-17T22:46:01.872Z,14.75
2018-08-17T22:49:06.210Z,14.69
2018-08-17T22:52:10.506Z,14.65
2018-08-17T22:55:14.761Z,14.63
2018-08-17T22:58:18.993Z,14.58
2018-08-17T23:01:23.221Z,14.56
2018-08-17T23:04:27.473Z,14.53
2018-08-17T23:07:31.700Z,14.53
2018-08-17T23:10:35.961Z,14.52
2018-08-17T23:13:40.193Z,14.51
2018-08-17T23:16:45.942Z,14.50
2018-08-17T23:19:50.189Z,14.48
2018-08-17T23:22:57.547Z,14.46
2018-08-17T23:26:01.806Z,14.43
2018-08-17T23:29:06.713Z,14.41
2018-08-17T23:32:11.021Z,14.38
2018-08-17T23:35:15.249Z,14.34
2018-08-17T23:38:19.483Z,14.31
2018-08-17T23:41:23.755Z,14.29
2018-08-17T23:44:28.000Z,14.28
2018-08-17T23:47:32.840Z,14.27
2018-08-17T23:50:37.086Z,14.23
2018-08-17T23:53:41.325Z,14.20
2018-08-17T23:56:45.597Z,14.16
2018-08-17T23:59:49.831Z,14.13
